sensor_id;sensor_type;location;lat;lon;timestamp;P1;durP1;ratioP1;P2;durP2;ratioP2
53056;SDS011;38940;50.096;4.012;2023-03-24T00:01:50;4.95;;;1.65;;
53056;SDS011;38940;50.096;4.012;2023-03-24T00:04:16;3.22;;;1.30;;
53056;SDS011;38940;50.096;4.012;2023-03-24T00:06:42;2.65;;;1.23;;
53056;SDS011;38940;50.096;4.012;2023-03-24T00:09:09;2.58;;;1.30;;
53056;SDS011;38940;50.096;4.012;2023-03-24T00:11:35;3.03;;;1.30;;
53056;SDS011;38940;50.096;4.012;2023-03-24T00:14:02;2.95;;;1.45;;
53056;SDS011;38940;50.096;4.012;2023-03-24T00:16:28;1.83;;;1.23;;
53056;SDS011;38940;50.096;4.012;2023-03-24T00:18:58;3.42;;;1.27;;
53056;SDS011;38940;50.096;4.012;2023-03-24T00:21:24;3.05;;;1.40;;
53056;SDS011;38940;50.096;4.012;2023-03-24T00:23:51;1.88;;;1.20;;
53056;SDS011;38940;50.096;4.012;2023-03-24T00:26:18;2.25;;;1.45;;
53056;SDS011;38940;50.096;4.012;2023-03-24T00:28:45;4.85;;;1.30;;
53056;SDS011;38940;50.096;4.012;2023-03-24T00:31:12;3.67;;;1.40;;
53056;SDS011;38940;50.096;4.012;2023-03-24T00:33:39;5.22;;;1.45;;
53056;SDS011;38940;50.096;4.012;2023-03-24T00:36:06;3.63;;;1.50;;
53056;SDS011;38940;50.096;4.012;2023-03-24T00:38:33;3.63;;;1.70;;
53056;SDS011;38940;50.096;4.012;2023-03-24T00:41:00;2.13;;;1.33;;
53056;SDS011;38940;50.096;4.012;2023-03-24T00:43:27;3.50;;;1.40;;
53056;SDS011;38940;50.096;4.012;2023-03-24T00:45:57;3.37;;;1.57;;
53056;SDS011;38940;50.096;4.012;2023-03-24T00:48:25;2.55;;;1.50;;
53056;SDS011;38940;50.096;4.012;2023-03-24T00:50:52;3.33;;;1.60;;
53056;SDS011;38940;50.096;4.012;2023-03-24T00:53:18;3.92;;;1.55;;
53056;SDS011;38940;50.096;4.012;2023-03-24T00:55:47;3.53;;;1.63;;
53056;SDS011;38940;50.096;4.012;2023-03-24T00:58:14;3.78;;;1.60;;
53056;SDS011;38940;50.096;4.012;2023-03-24T01:00:42;3.08;;;1.27;;
53056;SDS011;38940;50.096;4.012;2023-03-24T01:03:09;3.45;;;1.77;;
53056;SDS011;38940;50.096;4.012;2023-03-24T01:05:35;4.40;;;2.00;;
53056;SDS011;38940;50.096;4.012;2023-03-24T01:08:01;4.90;;;1.83;;
53056;SDS011;38940;50.096;4.012;2023-03-24T01:10:28;2.35;;;1.60;;
53056;SDS011;38940;50.096;4.012;2023-03-24T01:12:55;2.88;;;1.67;;
53056;SDS011;38940;50.096;4.012;2023-03-24T01:15:22;4.22;;;1.98;;
53056;SDS011;38940;50.096;4.012;2023-03-24T01:17:51;5.00;;;2.20;;
53056;SDS011;38940;50.096;4.012;2023-03-24T01:20:17;5.70;;;1.60;;
53056;SDS011;38940;50.096;4.012;2023-03-24T01:22:43;5.00;;;2.00;;
53056;SDS011;38940;50.096;4.012;2023-03-24T01:25:13;6.65;;;2.28;;
53056;SDS011;38940;50.096;4.012;2023-03-24T01:27:43;3.73;;;1.80;;
53056;SDS011;38940;50.096;4.012;2023-03-24T01:30:18;3.95;;;1.88;;
53056;SDS011;38940;50.096;4.012;2023-03-24T01:32:44;3.60;;;1.90;;
53056;SDS011;38940;50.096;4.012;2023-03-24T01:35:10;2.90;;;1.50;;
53056;SDS011;38940;50.096;4.012;2023-03-24T01:37:37;7.43;;;1.70;;
53056;SDS011;38940;50.096;4.012;2023-03-24T01:40:03;4.85;;;1.80;;
53056;SDS011;38940;50.096;4.012;2023-03-24T01:42:34;3.77;;;1.70;;
53056;SDS011;38940;50.096;4.012;2023-03-24T01:45:01;3.58;;;1.60;;
53056;SDS011;38940;50.096;4.012;2023-03-24T01:47:27;2.88;;;1.60;;
53056;SDS011;38940;50.096;4.012;2023-03-24T01:49:55;4.37;;;1.53;;
53056;SDS011;38940;50.096;4.012;2023-03-24T01:52:24;3.20;;;1.50;;
53056;SDS011;38940;50.096;4.012;2023-03-24T01:54:52;3.65;;;1.75;;
53056;SDS011;38940;50.096;4.012;2023-03-24T01:57:21;3.58;;;1.63;;
53056;SDS011;38940;50.096;4.012;2023-03-24T01:59:49;2.90;;;1.63;;
53056;SDS011;38940;50.096;4.012;2023-03-24T02:02:16;3.75;;;1.65;;
53056;SDS011;38940;50.096;4.012;2023-03-24T02:04:43;5.20;;;1.85;;
53056;SDS011;38940;50.096;4.012;2023-03-24T02:07:15;4.10;;;1.60;;
53056;SDS011;38940;50.096;4.012;2023-03-24T02:09:43;5.10;;;1.70;;
53056;SDS011;38940;50.096;4.012;2023-03-24T02:12:09;3.67;;;1.50;;
53056;SDS011;38940;50.096;4.012;2023-03-24T02:14:35;2.80;;;1.50;;
53056;SDS011;38940;50.096;4.012;2023-03-24T02:17:06;2.67;;;1.65;;
53056;SDS011;38940;50.096;4.012;2023-03-24T02:33:28;6.57;;;1.00;;
53056;SDS011;38940;50.096;4.012;2023-03-24T02:39:28;3.22;;;0.88;;
53056;SDS011;38940;50.096;4.012;2023-03-24T02:46:50;1.98;;;0.50;;
53056;SDS011;38940;50.096;4.012;2023-03-24T02:51:51;3.83;;;0.60;;
53056;SDS011;38940;50.096;4.012;2023-03-24T02:57:00;2.72;;;0.80;;
53056;SDS011;38940;50.096;4.012;2023-03-24T03:02:13;0.90;;;0.35;;
53056;SDS011;38940;50.096;4.012;2023-03-24T03:04:41;1.60;;;0.60;;
53056;SDS011;38940;50.096;4.012;2023-03-24T03:07:14;4.85;;;0.90;;
53056;SDS011;38940;50.096;4.012;2023-03-24T03:09:42;4.03;;;0.90;;
53056;SDS011;38940;50.096;4.012;2023-03-24T03:12:09;1.83;;;0.70;;
53056;SDS011;38940;50.096;4.012;2023-03-24T03:14:46;3.13;;;0.60;;
53056;SDS011;38940;50.096;4.012;2023-03-24T03:19:46;3.15;;;0.70;;
53056;SDS011;38940;50.096;4.012;2023-03-24T03:22:15;5.45;;;0.68;;
53056;SDS011;38940;50.096;4.012;2023-03-24T03:24:43;3.53;;;0.63;;
53056;SDS011;38940;50.096;4.012;2023-03-24T03:27:11;3.10;;;0.50;;
53056;SDS011;38940;50.096;4.012;2023-03-24T03:29:40;2.75;;;0.60;;
53056;SDS011;38940;50.096;4.012;2023-03-24T03:32:08;1.42;;;0.50;;
53056;SDS011;38940;50.096;4.012;2023-03-24T03:39:39;3.90;;;0.70;;
53056;SDS011;38940;50.096;4.012;2023-03-24T03:42:06;3.78;;;0.90;;
53056;SDS011;38940;50.096;4.012;2023-03-24T03:44:32;3.47;;;0.90;;
53056;SDS011;38940;50.096;4.012;2023-03-24T03:46:58;5.00;;;1.30;;
53056;SDS011;38940;50.096;4.012;2023-03-24T03:49:24;2.55;;;0.73;;
53056;SDS011;38940;50.096;4.012;2023-03-24T03:51:51;2.75;;;0.70;;
53056;SDS011;38940;50.096;4.012;2023-03-24T03:54:19;3.53;;;0.68;;
53056;SDS011;38940;50.096;4.012;2023-03-24T03:56:46;3.85;;;0.85;;
53056;SDS011;38940;50.096;4.012;2023-03-24T03:59:24;3.45;;;0.90;;
53056;SDS011;38940;50.096;4.012;2023-03-24T04:01:50;3.60;;;0.60;;
53056;SDS011;38940;50.096;4.012;2023-03-24T04:27:49;6.78;;;0.82;;
53056;SDS011;38940;50.096;4.012;2023-03-24T04:30:31;3.28;;;0.70;;
53056;SDS011;38940;50.096;4.012;2023-03-24T04:33:05;3.63;;;0.88;;
53056;SDS011;38940;50.096;4.012;2023-03-24T04:35:36;3.38;;;1.00;;
53056;SDS011;38940;50.096;4.012;2023-03-24T04:38:15;3.47;;;0.93;;
53056;SDS011;38940;50.096;4.012;2023-03-24T04:40:43;7.00;;;0.70;;
53056;SDS011;38940;50.096;4.012;2023-03-24T04:43:11;4.25;;;0.85;;
53056;SDS011;38940;50.096;4.012;2023-03-24T04:45:38;5.18;;;0.70;;
53056;SDS011;38940;50.096;4.012;2023-03-24T04:48:05;2.70;;;0.73;;
53056;SDS011;38940;50.096;4.012;2023-03-24T04:50:36;3.17;;;0.70;;
53056;SDS011;38940;50.096;4.012;2023-03-24T04:53:03;3.15;;;0.73;;
53056;SDS011;38940;50.096;4.012;2023-03-24T04:55:43;2.10;;;0.68;;
53056;SDS011;38940;50.096;4.012;2023-03-24T04:58:10;6.75;;;0.90;;
53056;SDS011;38940;50.096;4.012;2023-03-24T05:00:36;3.30;;;0.80;;
53056;SDS011;38940;50.096;4.012;2023-03-24T05:03:02;4.75;;;0.90;;
53056;SDS011;38940;50.096;4.012;2023-03-24T05:05:28;3.83;;;0.85;;
53056;SDS011;38940;50.096;4.012;2023-03-24T05:07:54;4.88;;;0.90;;
53056;SDS011;38940;50.096;4.012;2023-03-24T05:10:24;2.97;;;0.80;;
53056;SDS011;38940;50.096;4.012;2023-03-24T05:12:50;5.63;;;1.10;;
53056;SDS011;38940;50.096;4.012;2023-03-24T05:15:16;6.82;;;0.93;;
53056;SDS011;38940;50.096;4.012;2023-03-24T05:17:42;9.18;;;1.20;;
53056;SDS011;38940;50.096;4.012;2023-03-24T05:20:08;6.72;;;0.80;;
53056;SDS011;38940;50.096;4.012;2023-03-24T05:22:35;4.70;;;1.10;;
53056;SDS011;38940;50.096;4.012;2023-03-24T05:25:02;6.67;;;1.07;;
53056;SDS011;38940;50.096;4.012;2023-03-24T05:27:28;6.43;;;1.00;;
53056;SDS011;38940;50.096;4.012;2023-03-24T05:29:54;4.45;;;0.80;;
53056;SDS011;38940;50.096;4.012;2023-03-24T05:32:20;4.28;;;1.05;;
53056;SDS011;38940;50.096;4.012;2023-03-24T05:34:46;3.50;;;1.10;;
53056;SDS011;38940;50.096;4.012;2023-03-24T05:37:12;5.93;;;1.00;;
53056;SDS011;38940;50.096;4.012;2023-03-24T05:39:41;7.10;;;1.20;;
53056;SDS011;38940;50.096;4.012;2023-03-24T05:42:07;6.97;;;1.10;;
53056;SDS011;38940;50.096;4.012;2023-03-24T05:44:33;5.18;;;1.00;;
53056;SDS011;38940;50.096;4.012;2023-03-24T05:46:59;4.20;;;1.00;;
53056;SDS011;38940;50.096;4.012;2023-03-24T05:49:25;6.35;;;1.10;;
53056;SDS011;38940;50.096;4.012;2023-03-24T05:51:51;7.15;;;1.42;;
53056;SDS011;38940;50.096;4.012;2023-03-24T05:54:17;6.50;;;1.20;;
53056;SDS011;38940;50.096;4.012;2023-03-24T05:56:43;5.15;;;1.02;;
53056;SDS011;38940;50.096;4.012;2023-03-24T05:59:09;5.90;;;1.15;;
53056;SDS011;38940;50.096;4.012;2023-03-24T06:01:36;6.80;;;1.27;;
53056;SDS011;38940;50.096;4.012;2023-03-24T06:04:01;6.55;;;1.05;;
53056;SDS011;38940;50.096;4.012;2023-03-24T06:06:27;5.72;;;1.13;;
53056;SDS011;38940;50.096;4.012;2023-03-24T06:08:53;5.03;;;1.10;;
53056;SDS011;38940;50.096;4.012;2023-03-24T06:11:22;6.03;;;0.98;;
53056;SDS011;38940;50.096;4.012;2023-03-24T06:13:48;5.00;;;1.40;;
53056;SDS011;38940;50.096;4.012;2023-03-24T06:16:14;6.40;;;1.00;;
53056;SDS011;38940;50.096;4.012;2023-03-24T06:18:42;3.83;;;1.30;;
53056;SDS011;38940;50.096;4.012;2023-03-24T06:21:17;7.35;;;1.25;;
53056;SDS011;38940;50.096;4.012;2023-03-24T06:23:43;8.52;;;1.42;;
53056;SDS011;38940;50.096;4.012;2023-03-24T06:26:09;8.00;;;1.20;;
53056;SDS011;38940;50.096;4.012;2023-03-24T06:28:36;6.57;;;1.20;;
53056;SDS011;38940;50.096;4.012;2023-03-24T06:31:04;4.10;;;1.10;;
53056;SDS011;38940;50.096;4.012;2023-03-24T06:33:30;5.97;;;1.17;;
53056;SDS011;38940;50.096;4.012;2023-03-24T06:35:56;7.05;;;1.25;;
53056;SDS011;38940;50.096;4.012;2023-03-24T06:38:23;5.90;;;1.30;;
53056;SDS011;38940;50.096;4.012;2023-03-24T06:40:49;6.07;;;1.40;;
53056;SDS011;38940;50.096;4.012;2023-03-24T06:43:15;7.53;;;1.40;;
53056;SDS011;38940;50.096;4.012;2023-03-24T06:45:42;10.43;;;1.20;;
53056;SDS011;38940;50.096;4.012;2023-03-24T06:48:08;6.13;;;1.52;;
53056;SDS011;38940;50.096;4.012;2023-03-24T06:50:34;10.10;;;1.85;;
53056;SDS011;38940;50.096;4.012;2023-03-24T06:53:00;11.23;;;1.80;;
53056;SDS011;38940;50.096;4.012;2023-03-24T06:55:27;10.10;;;1.90;;
53056;SDS011;38940;50.096;4.012;2023-03-24T06:57:53;7.78;;;1.95;;
53056;SDS011;38940;50.096;4.012;2023-03-24T07:00:19;7.10;;;1.60;;
53056;SDS011;38940;50.096;4.012;2023-03-24T07:02:45;10.18;;;1.55;;
53056;SDS011;38940;50.096;4.012;2023-03-24T07:05:11;5.72;;;1.30;;
53056;SDS011;38940;50.096;4.012;2023-03-24T07:07:37;6.18;;;1.42;;
53056;SDS011;38940;50.096;4.012;2023-03-24T07:10:05;7.97;;;1.33;;
53056;SDS011;38940;50.096;4.012;2023-03-24T07:12:31;8.80;;;1.23;;
53056;SDS011;38940;50.096;4.012;2023-03-24T07:14:57;7.10;;;1.40;;
53056;SDS011;38940;50.096;4.012;2023-03-24T07:17:23;6.35;;;1.00;;
53056;SDS011;38940;50.096;4.012;2023-03-24T07:19:50;9.70;;;1.23;;
53056;SDS011;38940;50.096;4.012;2023-03-24T07:22:16;8.05;;;1.20;;
53056;SDS011;38940;50.096;4.012;2023-03-24T07:24:42;8.30;;;1.33;;
53056;SDS011;38940;50.096;4.012;2023-03-24T07:27:07;6.43;;;1.20;;
53056;SDS011;38940;50.096;4.012;2023-03-24T07:29:33;4.97;;;1.27;;
53056;SDS011;38940;50.096;4.012;2023-03-24T07:32:00;5.45;;;1.17;;
53056;SDS011;38940;50.096;4.012;2023-03-24T07:34:26;6.60;;;1.30;;
53056;SDS011;38940;50.096;4.012;2023-03-24T07:36:52;7.13;;;1.10;;
53056;SDS011;38940;50.096;4.012;2023-03-24T07:39:18;5.78;;;1.20;;
53056;SDS011;38940;50.096;4.012;2023-03-24T07:41:45;7.88;;;1.50;;
53056;SDS011;38940;50.096;4.012;2023-03-24T07:44:11;4.18;;;1.15;;
53056;SDS011;38940;50.096;4.012;2023-03-24T07:46:37;4.88;;;1.10;;
53056;SDS011;38940;50.096;4.012;2023-03-24T07:49:03;8.68;;;1.17;;
53056;SDS011;38940;50.096;4.012;2023-03-24T07:51:30;7.90;;;1.30;;
53056;SDS011;38940;50.096;4.012;2023-03-24T07:53:57;9.00;;;1.45;;
53056;SDS011;38940;50.096;4.012;2023-03-24T07:56:23;8.57;;;1.70;;
53056;SDS011;38940;50.096;4.012;2023-03-24T07:58:49;7.22;;;1.50;;
53056;SDS011;38940;50.096;4.012;2023-03-24T08:01:15;11.35;;;1.67;;
53056;SDS011;38940;50.096;4.012;2023-03-24T08:03:42;11.57;;;1.60;;
53056;SDS011;38940;50.096;4.012;2023-03-24T08:06:08;9.77;;;1.60;;
53056;SDS011;38940;50.096;4.012;2023-03-24T08:08:34;7.50;;;1.37;;
53056;SDS011;38940;50.096;4.012;2023-03-24T08:11:01;10.02;;;1.73;;
53056;SDS011;38940;50.096;4.012;2023-03-24T08:13:27;8.00;;;1.63;;
53056;SDS011;38940;50.096;4.012;2023-03-24T08:15:53;13.02;;;1.67;;
53056;SDS011;38940;50.096;4.012;2023-03-24T08:18:19;10.38;;;1.70;;
53056;SDS011;38940;50.096;4.012;2023-03-24T08:20:46;10.25;;;1.70;;
53056;SDS011;38940;50.096;4.012;2023-03-24T08:23:12;11.40;;;1.58;;
53056;SDS011;38940;50.096;4.012;2023-03-24T08:25:38;11.30;;;1.98;;
53056;SDS011;38940;50.096;4.012;2023-03-24T08:28:04;17.98;;;1.95;;
53056;SDS011;38940;50.096;4.012;2023-03-24T08:30:30;11.35;;;1.80;;
53056;SDS011;38940;50.096;4.012;2023-03-24T08:32:57;10.23;;;2.10;;
53056;SDS011;38940;50.096;4.012;2023-03-24T08:35:25;11.18;;;2.00;;
53056;SDS011;38940;50.096;4.012;2023-03-24T08:37:51;13.65;;;1.58;;
53056;SDS011;38940;50.096;4.012;2023-03-24T08:40:18;8.93;;;1.60;;
53056;SDS011;38940;50.096;4.012;2023-03-24T08:42:47;12.75;;;2.00;;
53056;SDS011;38940;50.096;4.012;2023-03-24T08:48:04;14.47;;;2.37;;
53056;SDS011;38940;50.096;4.012;2023-03-24T08:50:32;12.93;;;2.40;;
53056;SDS011;38940;50.096;4.012;2023-03-24T08:52:59;11.37;;;2.07;;
53056;SDS011;38940;50.096;4.012;2023-03-24T08:55:25;13.63;;;2.05;;
53056;SDS011;38940;50.096;4.012;2023-03-24T08:57:51;10.30;;;1.90;;
53056;SDS011;38940;50.096;4.012;2023-03-24T09:00:18;12.52;;;2.28;;
53056;SDS011;38940;50.096;4.012;2023-03-24T09:02:46;12.38;;;1.90;;
53056;SDS011;38940;50.096;4.012;2023-03-24T09:05:12;14.45;;;2.30;;
53056;SDS011;38940;50.096;4.012;2023-03-24T09:07:39;13.77;;;2.17;;
53056;SDS011;38940;50.096;4.012;2023-03-24T09:10:06;12.77;;;1.95;;
53056;SDS011;38940;50.096;4.012;2023-03-24T09:12:32;11.45;;;1.83;;
53056;SDS011;38940;50.096;4.012;2023-03-24T09:14:59;12.82;;;1.92;;
53056;SDS011;38940;50.096;4.012;2023-03-24T09:17:25;13.60;;;2.20;;
53056;SDS011;38940;50.096;4.012;2023-03-24T09:19:51;15.40;;;1.92;;
53056;SDS011;38940;50.096;4.012;2023-03-24T09:22:17;13.88;;;2.40;;
53056;SDS011;38940;50.096;4.012;2023-03-24T09:24:43;11.07;;;1.83;;
53056;SDS011;38940;50.096;4.012;2023-03-24T09:27:09;13.57;;;2.03;;
53056;SDS011;38940;50.096;4.012;2023-03-24T09:29:35;9.50;;;1.48;;
53056;SDS011;38940;50.096;4.012;2023-03-24T09:32:01;9.43;;;1.90;;
53056;SDS011;38940;50.096;4.012;2023-03-24T09:34:27;15.27;;;3.13;;
53056;SDS011;38940;50.096;4.012;2023-03-24T09:36:55;12.43;;;2.13;;
53056;SDS011;38940;50.096;4.012;2023-03-24T09:39:21;12.30;;;1.70;;
53056;SDS011;38940;50.096;4.012;2023-03-24T09:41:48;14.35;;;1.75;;
53056;SDS011;38940;50.096;4.012;2023-03-24T09:44:27;9.52;;;1.88;;
53056;SDS011;38940;50.096;4.012;2023-03-24T09:46:59;12.60;;;1.92;;
53056;SDS011;38940;50.096;4.012;2023-03-24T09:49:27;12.07;;;2.17;;
53056;SDS011;38940;50.096;4.012;2023-03-24T09:51:55;11.93;;;2.17;;
53056;SDS011;38940;50.096;4.012;2023-03-24T09:56:53;15.25;;;2.22;;
53056;SDS011;38940;50.096;4.012;2023-03-24T09:59:22;13.33;;;3.03;;
53056;SDS011;38940;50.096;4.012;2023-03-24T10:01:54;14.88;;;2.40;;
53056;SDS011;38940;50.096;4.012;2023-03-24T10:04:21;14.82;;;2.60;;
53056;SDS011;38940;50.096;4.012;2023-03-24T10:06:51;15.82;;;2.33;;
53056;SDS011;38940;50.096;4.012;2023-03-24T10:17:01;18.40;;;2.70;;
53056;SDS011;38940;50.096;4.012;2023-03-24T10:22:15;14.00;;;2.17;;
53056;SDS011;38940;50.096;4.012;2023-03-24T10:24:49;15.02;;;1.85;;
53056;SDS011;38940;50.096;4.012;2023-03-24T10:29:59;10.87;;;1.70;;
53056;SDS011;38940;50.096;4.012;2023-03-24T10:32:28;10.75;;;1.85;;
53056;SDS011;38940;50.096;4.012;2023-03-24T10:34:56;9.07;;;1.65;;
53056;SDS011;38940;50.096;4.012;2023-03-24T10:37:24;14.57;;;2.47;;
53056;SDS011;38940;50.096;4.012;2023-03-24T10:39:50;13.73;;;2.35;;
53056;SDS011;38940;50.096;4.012;2023-03-24T10:42:17;13.10;;;2.00;;
53056;SDS011;38940;50.096;4.012;2023-03-24T10:44:46;10.38;;;2.17;;
53056;SDS011;38940;50.096;4.012;2023-03-24T10:47:13;12.70;;;1.95;;
53056;SDS011;38940;50.096;4.012;2023-03-24T10:49:51;15.40;;;2.10;;
53056;SDS011;38940;50.096;4.012;2023-03-24T10:52:17;11.57;;;1.90;;
53056;SDS011;38940;50.096;4.012;2023-03-24T10:54:52;12.15;;;2.03;;
53056;SDS011;38940;50.096;4.012;2023-03-24T10:57:18;12.50;;;2.10;;
53056;SDS011;38940;50.096;4.012;2023-03-24T10:59:57;10.43;;;1.88;;
53056;SDS011;38940;50.096;4.012;2023-03-24T11:02:26;10.98;;;1.85;;
53056;SDS011;38940;50.096;4.012;2023-03-24T11:04:56;12.65;;;2.03;;
53056;SDS011;38940;50.096;4.012;2023-03-24T11:07:33;10.63;;;1.90;;
53056;SDS011;38940;50.096;4.012;2023-03-24T11:12:36;9.70;;;1.92;;
53056;SDS011;38940;50.096;4.012;2023-03-24T11:15:16;11.73;;;1.83;;
53056;SDS011;38940;50.096;4.012;2023-03-24T11:17:46;10.50;;;1.77;;
53056;SDS011;38940;50.096;4.012;2023-03-24T11:20:20;9.52;;;1.80;;
53056;SDS011;38940;50.096;4.012;2023-03-24T11:22:56;9.60;;;2.00;;
53056;SDS011;38940;50.096;4.012;2023-03-24T11:25:27;10.57;;;2.15;;
53056;SDS011;38940;50.096;4.012;2023-03-24T11:28:00;14.20;;;1.85;;
53056;SDS011;38940;50.096;4.012;2023-03-24T11:30:28;13.77;;;2.03;;
53056;SDS011;38940;50.096;4.012;2023-03-24T11:32:55;18.83;;;2.20;;
53056;SDS011;38940;50.096;4.012;2023-03-24T11:35:22;10.73;;;1.95;;
53056;SDS011;38940;50.096;4.012;2023-03-24T11:37:48;11.63;;;2.05;;
53056;SDS011;38940;50.096;4.012;2023-03-24T11:42:45;13.15;;;2.25;;
53056;SDS011;38940;50.096;4.012;2023-03-24T11:45:22;11.65;;;2.00;;
53056;SDS011;38940;50.096;4.012;2023-03-24T11:47:50;13.60;;;2.35;;
53056;SDS011;38940;50.096;4.012;2023-03-24T11:50:18;16.30;;;3.20;;
53056;SDS011;38940;50.096;4.012;2023-03-24T11:55:36;13.00;;;2.88;;
53056;SDS011;38940;50.096;4.012;2023-03-24T12:00:42;13.57;;;2.43;;
53056;SDS011;38940;50.096;4.012;2023-03-24T12:05:43;8.83;;;1.67;;
53056;SDS011;38940;50.096;4.012;2023-03-24T12:11:06;11.98;;;1.85;;
53056;SDS011;38940;50.096;4.012;2023-03-24T12:18:36;11.02;;;1.85;;
53056;SDS011;38940;50.096;4.012;2023-03-24T12:21:08;9.10;;;1.40;;
53056;SDS011;38940;50.096;4.012;2023-03-24T12:26:29;12.38;;;2.00;;
53056;SDS011;38940;50.096;4.012;2023-03-24T12:32:03;11.30;;;2.75;;
53056;SDS011;38940;50.096;4.012;2023-03-24T12:39:39;11.05;;;2.10;;
53056;SDS011;38940;50.096;4.012;2023-03-24T12:42:13;12.55;;;1.98;;
53056;SDS011;38940;50.096;4.012;2023-03-24T12:50:40;10.98;;;1.83;;
53056;SDS011;38940;50.096;4.012;2023-03-24T12:53:00;12.90;;;2.33;;
53056;SDS011;38940;50.096;4.012;2023-03-24T13:00:49;11.80;;;2.00;;
53056;SDS011;38940;50.096;4.012;2023-03-24T13:03:20;16.80;;;1.90;;
53056;SDS011;38940;50.096;4.012;2023-03-24T13:05:49;10.18;;;1.98;;
53056;SDS011;38940;50.096;4.012;2023-03-24T13:08:21;9.68;;;1.42;;
53056;SDS011;38940;50.096;4.012;2023-03-24T13:11:14;7.07;;;1.45;;
53056;SDS011;38940;50.096;4.012;2023-03-24T13:13:42;10.55;;;1.83;;
53056;SDS011;38940;50.096;4.012;2023-03-24T13:16:16;10.98;;;2.33;;
53056;SDS011;38940;50.096;4.012;2023-03-24T13:18:50;12.93;;;2.60;;
53056;SDS011;38940;50.096;4.012;2023-03-24T13:21:18;10.13;;;1.90;;
53056;SDS011;38940;50.096;4.012;2023-03-24T13:26:25;14.50;;;2.10;;
53056;SDS011;38940;50.096;4.012;2023-03-24T13:28:59;7.30;;;1.40;;
53056;SDS011;38940;50.096;4.012;2023-03-24T13:31:31;10.43;;;1.92;;
53056;SDS011;38940;50.096;4.012;2023-03-24T13:34:01;8.23;;;1.40;;
53056;SDS011;38940;50.096;4.012;2023-03-24T13:39:10;6.53;;;1.23;;
53056;SDS011;38940;50.096;4.012;2023-03-24T13:41:38;8.30;;;1.35;;
53056;SDS011;38940;50.096;4.012;2023-03-24T13:44:07;7.80;;;1.52;;
53056;SDS011;38940;50.096;4.012;2023-03-24T13:46:37;5.50;;;0.93;;
53056;SDS011;38940;50.096;4.012;2023-03-24T13:49:06;7.70;;;1.23;;
53056;SDS011;38940;50.096;4.012;2023-03-24T13:51:36;4.63;;;1.13;;
53056;SDS011;38940;50.096;4.012;2023-03-24T13:54:15;7.50;;;1.60;;
53056;SDS011;38940;50.096;4.012;2023-03-24T13:59:31;6.70;;;1.25;;
53056;SDS011;38940;50.096;4.012;2023-03-24T14:04:49;10.10;;;1.45;;
53056;SDS011;38940;50.096;4.012;2023-03-24T14:10:27;8.63;;;1.48;;
53056;SDS011;38940;50.096;4.012;2023-03-24T14:12:59;7.20;;;1.40;;
53056;SDS011;38940;50.096;4.012;2023-03-24T14:15:33;10.53;;;1.20;;
53056;SDS011;38940;50.096;4.012;2023-03-24T14:25:52;11.38;;;1.40;;
53056;SDS011;38940;50.096;4.012;2023-03-24T14:33:42;10.20;;;1.53;;
53056;SDS011;38940;50.096;4.012;2023-03-24T14:36:09;9.50;;;1.90;;
53056;SDS011;38940;50.096;4.012;2023-03-24T14:38:41;6.95;;;1.50;;
53056;SDS011;38940;50.096;4.012;2023-03-24T14:41:15;8.17;;;2.00;;
53056;SDS011;38940;50.096;4.012;2023-03-24T14:51:17;2.67;;;0.98;;
53056;SDS011;38940;50.096;4.012;2023-03-24T14:53:49;6.82;;;1.30;;
53056;SDS011;38940;50.096;4.012;2023-03-24T14:56:16;7.05;;;1.48;;
53056;SDS011;38940;50.096;4.012;2023-03-24T14:58:45;4.88;;;1.27;;
53056;SDS011;38940;50.096;4.012;2023-03-24T15:01:13;3.78;;;1.20;;
53056;SDS011;38940;50.096;4.012;2023-03-24T15:03:50;4.80;;;1.70;;
53056;SDS011;38940;50.096;4.012;2023-03-24T15:06:21;4.60;;;1.10;;
53056;SDS011;38940;50.096;4.012;2023-03-24T15:08:51;4.20;;;1.20;;
53056;SDS011;38940;50.096;4.012;2023-03-24T15:11:21;4.30;;;1.20;;
53056;SDS011;38940;50.096;4.012;2023-03-24T15:13:50;5.20;;;0.88;;
53056;SDS011;38940;50.096;4.012;2023-03-24T15:18:50;4.10;;;0.80;;
53056;SDS011;38940;50.096;4.012;2023-03-24T15:23:49;3.75;;;1.20;;
53056;SDS011;38940;50.096;4.012;2023-03-24T15:26:15;4.83;;;1.60;;
53056;SDS011;38940;50.096;4.012;2023-03-24T15:28:43;5.50;;;1.77;;
53056;SDS011;38940;50.096;4.012;2023-03-24T15:31:09;4.22;;;1.23;;
53056;SDS011;38940;50.096;4.012;2023-03-24T15:33:40;7.25;;;0.90;;
53056;SDS011;38940;50.096;4.012;2023-03-24T15:36:20;2.33;;;0.70;;
53056;SDS011;38940;50.096;4.012;2023-03-24T15:38:48;9.60;;;1.40;;
53056;SDS011;38940;50.096;4.012;2023-03-24T15:41:16;6.32;;;1.90;;
53056;SDS011;38940;50.096;4.012;2023-03-24T15:43:44;7.72;;;1.40;;
53056;SDS011;38940;50.096;4.012;2023-03-24T15:46:21;7.27;;;1.50;;
53056;SDS011;38940;50.096;4.012;2023-03-24T15:48:48;12.98;;;1.70;;
53056;SDS011;38940;50.096;4.012;2023-03-24T15:51:14;8.97;;;1.80;;
53056;SDS011;38940;50.096;4.012;2023-03-24T15:53:41;7.55;;;1.20;;
53056;SDS011;38940;50.096;4.012;2023-03-24T15:58:44;6.00;;;1.05;;
53056;SDS011;38940;50.096;4.012;2023-03-24T16:01:10;6.83;;;1.00;;
53056;SDS011;38940;50.096;4.012;2023-03-24T16:03:39;4.72;;;0.95;;
53056;SDS011;38940;50.096;4.012;2023-03-24T16:06:11;4.43;;;0.77;;
53056;SDS011;38940;50.096;4.012;2023-03-24T16:08:37;3.73;;;0.70;;
53056;SDS011;38940;50.096;4.012;2023-03-24T16:11:07;6.07;;;1.00;;
53056;SDS011;38940;50.096;4.012;2023-03-24T16:13:40;4.93;;;1.20;;
53056;SDS011;38940;50.096;4.012;2023-03-24T16:18:38;2.97;;;0.80;;
53056;SDS011;38940;50.096;4.012;2023-03-24T16:21:12;3.10;;;0.70;;
53056;SDS011;38940;50.096;4.012;2023-03-24T16:23:39;5.95;;;1.08;;
53056;SDS011;38940;50.096;4.012;2023-03-24T16:26:11;3.78;;;0.90;;
53056;SDS011;38940;50.096;4.012;2023-03-24T16:28:37;3.95;;;0.80;;
53056;SDS011;38940;50.096;4.012;2023-03-24T16:31:04;6.22;;;1.08;;
53056;SDS011;38940;50.096;4.012;2023-03-24T16:33:31;3.70;;;0.90;;
53056;SDS011;38940;50.096;4.012;2023-03-24T16:35:58;5.28;;;1.00;;
53056;SDS011;38940;50.096;4.012;2023-03-24T16:38:24;4.00;;;1.00;;
53056;SDS011;38940;50.096;4.012;2023-03-24T16:40:51;5.45;;;1.45;;
53056;SDS011;38940;50.096;4.012;2023-03-24T16:43:18;3.25;;;0.90;;
53056;SDS011;38940;50.096;4.012;2023-03-24T16:45:45;7.57;;;0.90;;
53056;SDS011;38940;50.096;4.012;2023-03-24T16:48:11;4.83;;;0.83;;
53056;SDS011;38940;50.096;4.012;2023-03-24T16:50:38;2.63;;;0.60;;
53056;SDS011;38940;50.096;4.012;2023-03-24T16:53:05;3.75;;;1.10;;
53056;SDS011;38940;50.096;4.012;2023-03-24T16:55:33;2.47;;;0.60;;
53056;SDS011;38940;50.096;4.012;2023-03-24T16:57:59;2.92;;;0.60;;
53056;SDS011;38940;50.096;4.012;2023-03-24T17:00:25;2.60;;;0.50;;
53056;SDS011;38940;50.096;4.012;2023-03-24T17:02:53;1.38;;;0.50;;
53056;SDS011;38940;50.096;4.012;2023-03-24T17:05:23;1.05;;;0.50;;
53056;SDS011;38940;50.096;4.012;2023-03-24T17:07:52;0.90;;;0.40;;
53056;SDS011;38940;50.096;4.012;2023-03-24T17:10:18;1.80;;;0.35;;
53056;SDS011;38940;50.096;4.012;2023-03-24T17:12:44;2.20;;;0.60;;
53056;SDS011;38940;50.096;4.012;2023-03-24T17:15:19;1.50;;;0.50;;
53056;SDS011;38940;50.096;4.012;2023-03-24T17:17:45;3.90;;;0.68;;
53056;SDS011;38940;50.096;4.012;2023-03-24T17:20:11;2.40;;;0.63;;
53056;SDS011;38940;50.096;4.012;2023-03-24T17:22:39;2.67;;;0.60;;
53056;SDS011;38940;50.096;4.012;2023-03-24T17:25:06;3.05;;;0.60;;
53056;SDS011;38940;50.096;4.012;2023-03-24T17:27:32;3.08;;;0.45;;
53056;SDS011;38940;50.096;4.012;2023-03-24T17:29:58;3.38;;;0.70;;
53056;SDS011;38940;50.096;4.012;2023-03-24T17:32:29;2.17;;;0.55;;
53056;SDS011;38940;50.096;4.012;2023-03-24T17:34:56;2.53;;;0.90;;
53056;SDS011;38940;50.096;4.012;2023-03-24T17:37:23;2.28;;;0.50;;